Aviation Digital Data Service (ADDS)

Output produced by TAFs form (1946 UTC 23 November 2014)
found at http://www.aviationweather.gov/adds/tafs/
 
KAPA 231853Z 36012G18KT 10SM FEW050 BKN200 05/M09 A2977 RMK AO2 SLP076 SHSN OMTNS DSNT NW T00501094
KAPA 231740Z 2318/2418 35013G30KT P6SM SCT070 SCT100 BKN200 
     FM240000 30012KT P6SM FEW100 BKN200 
     FM240400 27010KT P6SM FEW120 SCT200 
     FM240900 24010KT P6SM SCT200 
     FM241600 31012G20KT P6SM FEW070 SCT100 BKN220